createdAt,value
2019-03-24T00:01:52.551Z,25.43
2019-03-24T00:04:26.244Z,26.83
2019-03-24T00:07:00.168Z,25.13
2019-03-24T00:09:33.833Z,23.70
2019-03-24T00:12:07.650Z,23.03
2019-03-24T00:14:44.105Z,21.13
2019-03-24T00:17:17.745Z,24.93
2019-03-24T00:19:51.319Z,19.67
2019-03-24T00:22:25.013Z,21.57
2019-03-24T00:24:58.629Z,19.37
2019-03-24T00:27:32.437Z,19.57
2019-03-24T00:30:10.936Z,19.37
2019-03-24T00:32:44.614Z,23.70
2019-03-24T00:35:18.267Z,23.10
2019-03-24T00:37:51.941Z,17.37
2019-03-24T00:44:02.931Z,20.17
2019-03-24T00:46:36.725Z,15.27
2019-03-24T00:49:10.446Z,22.23
2019-03-24T00:51:44.159Z,17.30
2019-03-24T00:54:17.751Z,16.80
2019-03-24T01:00:46.005Z,20.47
2019-03-24T01:03:19.927Z,17.53
2019-03-24T01:05:53.646Z,22.97
2019-03-24T01:08:27.319Z,11.57
2019-03-24T01:11:01.567Z,17.70
2019-03-24T01:13:35.351Z,19.50
2019-03-24T01:16:09.200Z,14.23
2019-03-24T01:18:42.981Z,18.53
2019-03-24T01:21:16.556Z,22.03
2019-03-24T01:23:50.263Z,18.07
2019-03-24T01:26:24.088Z,11.83
2019-03-24T01:29:00.459Z,15.53
2019-03-24T01:31:34.164Z,15.63
2019-03-24T01:34:09.241Z,16.47
2019-03-24T01:36:42.838Z,28.53
2019-03-24T01:39:16.461Z,16.90
2019-03-24T01:41:50.087Z,22.87
2019-03-24T01:44:23.739Z,14.63
2019-03-24T01:46:57.292Z,13.17
2019-03-24T01:49:30.971Z,12.80
2019-03-24T01:52:04.631Z,16.60
2019-03-24T01:54:38.703Z,22.20
2019-03-24T01:57:12.401Z,17.63
2019-03-24T01:59:46.032Z,16.53
2019-03-24T02:02:19.619Z,15.67
2019-03-24T02:04:53.417Z,20.77
2019-03-24T02:07:27.185Z,16.00
2019-03-24T02:10:00.812Z,15.43
2019-03-24T02:12:34.562Z,15.43
2019-03-24T02:15:09.397Z,13.70
2019-03-24T02:17:43.166Z,16.20
2019-03-24T02:20:17.367Z,19.83
2019-03-24T02:22:51.031Z,14.00
2019-03-24T02:25:24.779Z,14.27
2019-03-24T02:27:58.463Z,14.03
2019-03-24T02:30:32.080Z,14.93
2019-03-24T02:33:05.737Z,15.07
2019-03-24T02:35:39.418Z,15.60
2019-03-24T02:38:13.145Z,13.17
2019-03-24T02:43:56.317Z,13.30
2019-03-24T02:46:29.944Z,17.17
2019-03-24T02:49:03.641Z,12.10
2019-03-24T02:51:37.322Z,11.37
2019-03-24T02:54:11.002Z,17.53
2019-03-24T03:00:31.261Z,17.27
2019-03-24T03:03:05.029Z,13.90
2019-03-24T03:05:38.832Z,18.33
2019-03-24T03:08:12.508Z,16.77
2019-03-24T03:10:46.291Z,15.07
2019-03-24T03:17:06.293Z,14.10
2019-03-24T03:19:40.171Z,15.03
2019-03-24T03:22:13.914Z,21.67
2019-03-24T03:24:47.515Z,12.80
2019-03-24T03:27:21.285Z,15.40
2019-03-24T03:29:54.922Z,16.93
2019-03-24T03:32:28.617Z,13.60
2019-03-24T03:35:02.314Z,16.27
2019-03-24T03:37:36.489Z,9.63
2019-03-24T03:40:11.134Z,17.23
2019-03-24T03:42:45.366Z,13.90
2019-03-24T03:45:22.054Z,15.60
2019-03-24T03:47:56.414Z,19.33
2019-03-24T03:50:30.094Z,15.33
2019-03-24T03:53:03.707Z,20.23
2019-03-24T03:55:37.343Z,17.00
2019-03-24T03:58:10.984Z,18.07
2019-03-24T04:00:46.152Z,15.90
2019-03-24T04:03:19.829Z,19.10
2019-03-24T04:05:53.549Z,13.10
2019-03-24T04:08:27.187Z,17.20
2019-03-24T04:11:00.797Z,19.07
2019-03-24T04:13:34.408Z,19.00
2019-03-24T04:16:08.150Z,20.13
2019-03-24T04:18:41.864Z,16.40
2019-03-24T04:21:15.563Z,16.13
2019-03-24T04:23:49.150Z,20.37
2019-03-24T04:30:00.445Z,12.70
2019-03-24T04:32:34.190Z,16.93
2019-03-24T04:35:09.090Z,13.93
2019-03-24T04:37:42.855Z,17.17
2019-03-24T04:40:16.583Z,17.07
2019-03-24T04:46:37.264Z,16.00
2019-03-24T04:49:10.876Z,20.60
2019-03-24T04:51:44.822Z,15.53
2019-03-24T04:54:18.494Z,17.13
2019-03-24T04:56:52.288Z,23.10
2019-03-24T04:59:25.952Z,9.53
2019-03-24T05:01:59.558Z,16.33
2019-03-24T05:04:33.269Z,16.33
2019-03-24T05:07:07.069Z,14.80
2019-03-24T05:09:41.585Z,16.00
2019-03-24T05:12:15.187Z,15.30
2019-03-24T05:14:49.022Z,16.97
2019-03-24T05:17:27.010Z,17.23
2019-03-24T05:19:58.002Z,25.00
2019-03-24T05:22:31.690Z,14.43
2019-03-24T05:25:06.050Z,22.83
2019-03-24T05:27:39.726Z,21.83
2019-03-24T05:30:13.568Z,17.70
2019-03-24T05:32:47.259Z,18.53
2019-03-24T05:35:21.022Z,16.60
2019-03-24T05:37:54.685Z,21.50
2019-03-24T05:40:28.498Z,16.83
2019-03-24T05:43:02.167Z,20.60
2019-03-24T05:45:35.832Z,16.77
2019-03-24T05:48:09.548Z,18.43
2019-03-24T05:50:43.464Z,13.03
2019-03-24T05:53:17.045Z,14.47
2019-03-24T05:55:50.774Z,14.70
2019-03-24T05:58:24.451Z,16.47
2019-03-24T06:00:58.111Z,18.47
2019-03-24T06:03:31.774Z,21.07
2019-03-24T06:06:05.540Z,17.73
2019-03-24T06:08:39.263Z,14.60
2019-03-24T06:11:13.043Z,13.23
2019-03-24T06:13:46.848Z,13.27
2019-03-24T06:16:20.449Z,16.47
2019-03-24T06:18:54.275Z,19.23
2019-03-24T06:21:27.908Z,21.17
2019-03-24T06:24:01.573Z,17.07
2019-03-24T06:26:35.274Z,18.37
2019-03-24T06:29:08.871Z,20.40
2019-03-24T06:31:42.597Z,20.27
2019-03-24T06:34:16.281Z,15.80
2019-03-24T06:36:50.012Z,27.30
2019-03-24T06:39:23.685Z,29.00
2019-03-24T06:45:34.889Z,14.43
2019-03-24T06:48:08.538Z,9.60
2019-03-24T06:50:43.229Z,19.37
2019-03-24T06:53:16.859Z,16.00
2019-03-24T06:55:50.419Z,19.80
2019-03-24T07:02:01.318Z,15.47
2019-03-24T07:04:35.061Z,16.53
2019-03-24T07:07:08.699Z,16.70
2019-03-24T07:09:42.371Z,19.07
2019-03-24T07:12:16.055Z,17.77
2019-03-24T07:14:49.685Z,15.87
2019-03-24T07:17:23.380Z,15.97
2019-03-24T07:19:56.990Z,17.10
2019-03-24T07:22:30.667Z,18.87
2019-03-24T07:25:05.505Z,17.63
2019-03-24T07:27:40.633Z,23.53
2019-03-24T07:30:14.625Z,19.40
2019-03-24T07:32:48.257Z,20.27
2019-03-24T07:35:21.865Z,21.13
2019-03-24T07:37:55.520Z,20.53
2019-03-24T07:40:30.589Z,11.70
2019-03-24T07:43:04.355Z,18.20
2019-03-24T07:45:38.209Z,16.83
2019-03-24T07:48:18.943Z,17.80
2019-03-24T07:50:47.315Z,19.20
2019-03-24T07:53:20.937Z,20.90
2019-03-24T07:55:54.661Z,21.77
2019-03-24T07:58:28.346Z,22.17
2019-03-24T08:01:02.034Z,22.33
2019-03-24T08:03:35.650Z,21.53
2019-03-24T08:06:09.440Z,24.20
2019-03-24T08:08:44.681Z,18.50
2019-03-24T08:11:18.420Z,14.03
2019-03-24T08:13:54.241Z,24.53
2019-03-24T08:16:30.978Z,19.60
2019-03-24T08:19:04.722Z,20.47
2019-03-24T08:21:38.562Z,12.97
2019-03-24T08:24:12.363Z,23.73
2019-03-24T08:26:46.020Z,26.33
2019-03-24T08:29:19.683Z,16.17
2019-03-24T08:31:53.347Z,21.60
2019-03-24T08:34:27.068Z,21.17
2019-03-24T08:37:00.809Z,23.43
2019-03-24T08:39:34.406Z,22.03
2019-03-24T08:42:08.106Z,21.07
2019-03-24T08:44:41.844Z,20.73
2019-03-24T08:47:16.016Z,16.30
2019-03-24T08:49:49.735Z,20.47
2019-03-24T08:52:23.377Z,17.10
2019-03-24T08:54:58.763Z,18.33
2019-03-24T09:01:18.462Z,17.30
2019-03-24T09:03:52.188Z,21.63
2019-03-24T09:06:27.854Z,21.13
2019-03-24T09:09:01.683Z,17.33
2019-03-24T09:11:35.439Z,17.77
2019-03-24T09:17:55.551Z,21.40
2019-03-24T09:20:29.393Z,22.62
2019-03-24T09:23:03.803Z,15.97
2019-03-24T09:25:37.506Z,19.07
2019-03-24T09:28:11.290Z,21.90
2019-03-24T09:30:45.418Z,23.17
2019-03-24T09:33:19.059Z,16.63
2019-03-24T09:35:52.776Z,16.50
2019-03-24T09:38:27.515Z,21.13
2019-03-24T09:41:04.214Z,18.97
2019-03-24T09:43:38.633Z,17.33
2019-03-24T09:46:12.312Z,16.00
2019-03-24T09:48:46.011Z,15.83
2019-03-24T09:51:21.185Z,16.50
2019-03-24T09:53:55.097Z,19.57
2019-03-24T09:56:29.056Z,22.40
2019-03-24T09:59:02.739Z,23.03
2019-03-24T10:01:36.716Z,17.63
2019-03-24T10:04:10.515Z,18.90
2019-03-24T10:06:44.399Z,17.77
2019-03-24T10:09:18.639Z,14.47
2019-03-24T10:11:52.768Z,19.03
2019-03-24T10:14:26.406Z,15.40
2019-03-24T10:17:00.111Z,18.73
2019-03-24T10:19:33.710Z,16.57
2019-03-24T10:22:07.396Z,16.63
2019-03-24T10:24:41.038Z,20.03
2019-03-24T10:27:14.656Z,11.37
2019-03-24T10:29:48.312Z,20.93
2019-03-24T10:32:22.284Z,20.27
2019-03-24T10:34:56.010Z,17.47
2019-03-24T10:37:29.798Z,15.20
2019-03-24T10:40:04.085Z,20.00
2019-03-24T10:42:38.101Z,16.00
2019-03-24T10:45:12.520Z,14.87
2019-03-24T10:47:46.359Z,15.00
2019-03-24T10:50:20.132Z,17.83
2019-03-24T10:52:53.734Z,17.23
2019-03-24T10:55:27.335Z,15.03
2019-03-24T11:01:38.446Z,19.13
2019-03-24T11:04:12.033Z,13.97
2019-03-24T11:06:45.708Z,17.73
2019-03-24T11:09:19.336Z,14.20
2019-03-24T11:11:53.044Z,17.60
2019-03-24T11:18:04.390Z,14.37
2019-03-24T11:20:38.114Z,11.80
2019-03-24T11:23:13.951Z,14.23
2019-03-24T11:25:47.584Z,15.17
2019-03-24T11:28:21.241Z,15.60
2019-03-24T11:30:55.224Z,15.20
2019-03-24T11:33:29.707Z,14.20
2019-03-24T11:36:03.500Z,17.40
2019-03-24T11:38:37.298Z,13.03
2019-03-24T11:41:10.828Z,13.37
2019-03-24T11:43:44.538Z,14.27
2019-03-24T11:46:18.125Z,17.00
2019-03-24T11:48:51.769Z,18.27
2019-03-24T11:51:25.444Z,11.40
2019-03-24T11:53:59.173Z,12.00
2019-03-24T11:56:32.847Z,13.60
2019-03-24T11:59:06.470Z,14.57
2019-03-24T12:01:40.143Z,14.13
2019-03-24T12:04:13.767Z,11.70
2019-03-24T12:06:47.441Z,12.00
2019-03-24T12:09:21.090Z,16.63
2019-03-24T12:11:55.311Z,17.70
2019-03-24T12:14:29.053Z,16.47
2019-03-24T12:17:02.872Z,17.43
2019-03-24T12:19:36.411Z,20.00
2019-03-24T12:22:10.111Z,15.00
2019-03-24T12:24:43.859Z,16.60
2019-03-24T12:27:17.568Z,14.90
2019-03-24T12:29:51.167Z,18.17
2019-03-24T12:32:25.402Z,18.93
2019-03-24T12:34:58.990Z,17.30
2019-03-24T12:37:32.689Z,11.50
2019-03-24T12:40:07.729Z,18.50
2019-03-24T12:42:41.524Z,21.10
2019-03-24T12:45:15.451Z,15.93
2019-03-24T12:47:49.156Z,15.07
2019-03-24T12:50:31.069Z,16.57
2019-03-24T12:52:58.039Z,14.40
2019-03-24T12:55:31.644Z,11.47
2019-03-24T12:58:05.454Z,16.00
2019-03-24T13:00:40.400Z,14.23
2019-03-24T13:03:14.051Z,13.97
2019-03-24T13:05:47.724Z,15.50
2019-03-24T13:08:21.491Z,10.30
2019-03-24T13:10:55.283Z,15.00
2019-03-24T13:13:29.831Z,17.67
2019-03-24T13:16:03.541Z,16.37
2019-03-24T13:18:37.098Z,17.27
2019-03-24T13:21:10.968Z,12.13
2019-03-24T13:23:44.583Z,19.33
2019-03-24T13:26:18.254Z,12.10
2019-03-24T13:32:23.765Z,19.43
2019-03-24T13:34:57.751Z,13.40
2019-03-24T13:37:32.041Z,11.07
2019-03-24T13:40:06.251Z,13.50
2019-03-24T13:42:41.857Z,17.40
2019-03-24T13:49:01.915Z,14.13
2019-03-24T13:51:35.508Z,18.83
2019-03-24T13:54:09.245Z,10.10
2019-03-24T13:56:42.845Z,12.07
2019-03-24T13:59:16.520Z,16.17
2019-03-24T14:01:51.119Z,16.10
2019-03-24T14:04:24.907Z,18.87
2019-03-24T14:06:58.646Z,17.03
2019-03-24T14:09:32.429Z,11.27
2019-03-24T14:12:06.325Z,10.13
2019-03-24T14:14:40.074Z,9.40
2019-03-24T14:17:13.712Z,10.97
2019-03-24T14:19:47.376Z,15.60
2019-03-24T14:22:21.012Z,11.03
2019-03-24T14:24:54.791Z,11.03
2019-03-24T14:27:28.611Z,7.97
2019-03-24T14:30:02.928Z,13.33
2019-03-24T14:32:36.505Z,11.17
2019-03-24T14:35:10.621Z,13.53
2019-03-24T14:37:44.345Z,12.27
2019-03-24T14:40:18.092Z,11.17
2019-03-24T14:42:51.703Z,11.03
2019-03-24T14:45:25.421Z,15.73
2019-03-24T14:47:59.078Z,15.97
2019-03-24T14:50:32.679Z,12.80
2019-03-24T14:53:06.719Z,13.90
2019-03-24T14:55:40.292Z,12.30
2019-03-24T14:58:14.062Z,11.93
2019-03-24T15:00:47.880Z,12.57
2019-03-24T15:03:21.781Z,12.07
2019-03-24T15:05:55.635Z,10.27
2019-03-24T15:08:30.241Z,14.03
2019-03-24T15:11:04.309Z,13.90
2019-03-24T15:13:38.052Z,14.90
2019-03-24T15:16:11.844Z,17.00
2019-03-24T15:18:46.829Z,16.00
2019-03-24T15:21:20.681Z,15.10
2019-03-24T15:23:54.419Z,15.43
2019-03-24T15:26:28.058Z,13.03
2019-03-24T15:32:29.741Z,13.77
2019-03-24T15:35:07.570Z,14.80
2019-03-24T15:37:41.181Z,14.27
2019-03-24T15:40:15.211Z,19.07
2019-03-24T15:42:48.960Z,12.67
2019-03-24T15:49:08.801Z,11.40
2019-03-24T15:51:42.441Z,13.47
2019-03-24T15:54:16.103Z,16.77
2019-03-24T15:56:51.045Z,9.00
2019-03-24T15:59:28.886Z,17.43
2019-03-24T16:02:02.771Z,11.07
2019-03-24T16:05:22.131Z,13.93
2019-03-24T16:07:27.817Z,15.40
2019-03-24T16:10:02.585Z,13.17
2019-03-24T16:12:42.496Z,12.90
2019-03-24T16:15:19.011Z,11.20
2019-03-24T16:17:57.270Z,17.33
2019-03-24T16:20:32.627Z,18.77
2019-03-24T16:23:06.392Z,13.40
2019-03-24T16:25:40.237Z,15.37
2019-03-24T16:28:14.359Z,14.20
2019-03-24T16:30:48.225Z,18.67
2019-03-24T16:33:21.925Z,13.80
2019-03-24T16:35:55.597Z,16.17
2019-03-24T16:38:29.652Z,17.30
2019-03-24T16:41:03.285Z,22.47
2019-03-24T16:43:38.141Z,18.87
2019-03-24T16:46:11.829Z,23.47
2019-03-24T16:48:45.508Z,19.47
2019-03-24T16:51:19.237Z,25.47
2019-03-24T16:53:53.024Z,24.90
2019-03-24T16:56:26.791Z,21.97
2019-03-24T16:59:00.331Z,27.07
2019-03-24T17:01:35.370Z,16.97
2019-03-24T17:04:09.022Z,26.70
2019-03-24T17:06:43.531Z,25.13
2019-03-24T17:09:17.228Z,21.10
2019-03-24T17:11:50.943Z,23.27
2019-03-24T17:18:02.623Z,16.27
2019-03-24T17:20:36.590Z,21.77
2019-03-24T17:23:10.438Z,20.60
2019-03-24T17:25:44.144Z,18.47
2019-03-24T17:28:18.385Z,26.40
2019-03-24T17:34:23.513Z,32.70
2019-03-24T17:36:58.580Z,37.77
2019-03-24T17:39:32.751Z,26.80
2019-03-24T17:42:06.518Z,31.57
2019-03-24T17:44:43.765Z,28.97
2019-03-24T17:47:17.505Z,24.40
2019-03-24T17:49:51.304Z,26.20
2019-03-24T17:52:25.023Z,24.60
2019-03-24T17:54:58.913Z,27.07
2019-03-24T17:57:32.591Z,26.87
2019-03-24T18:00:12.324Z,20.43
2019-03-24T18:02:45.993Z,25.27
2019-03-24T18:05:19.781Z,21.67
2019-03-24T18:07:53.449Z,23.83
2019-03-24T18:10:27.377Z,24.37
2019-03-24T18:13:01.083Z,27.60
2019-03-24T18:15:34.763Z,26.90
2019-03-24T18:18:08.604Z,28.10
2019-03-24T18:20:42.205Z,30.37
2019-03-24T18:23:16.596Z,22.80
2019-03-24T18:25:50.213Z,23.33
2019-03-24T18:28:23.924Z,16.87
2019-03-24T18:30:57.632Z,18.17
2019-03-24T18:33:31.412Z,23.83
2019-03-24T18:36:05.152Z,18.90
2019-03-24T18:38:38.967Z,21.23
2019-03-24T18:41:12.652Z,25.63
2019-03-24T18:43:46.349Z,20.83
2019-03-24T18:46:21.224Z,23.47
2019-03-24T18:48:54.997Z,22.70
2019-03-24T18:51:28.630Z,20.90
2019-03-24T18:54:02.367Z,32.23
2019-03-24T18:56:36.111Z,22.43
2019-03-24T18:59:09.830Z,25.73
2019-03-24T19:01:43.597Z,32.67
2019-03-24T19:04:17.206Z,21.90
2019-03-24T19:06:50.912Z,27.00
2019-03-24T19:09:24.508Z,25.73
2019-03-24T19:11:58.146Z,24.23
2019-03-24T19:14:31.747Z,24.57
2019-03-24T19:17:05.470Z,30.63
2019-03-24T19:19:39.293Z,24.67
2019-03-24T19:22:13.010Z,25.17
2019-03-24T19:24:46.713Z,24.80
2019-03-24T19:27:20.418Z,29.80
2019-03-24T19:29:54.131Z,26.70
2019-03-24T19:32:28.532Z,26.20
2019-03-24T19:35:02.705Z,24.77
2019-03-24T19:37:36.784Z,23.67
2019-03-24T19:40:27.988Z,29.57
2019-03-24T19:43:01.676Z,27.30
2019-03-24T19:49:13.009Z,21.47
2019-03-24T19:51:46.742Z,25.93
2019-03-24T19:54:20.450Z,36.57
2019-03-24T19:56:54.092Z,33.30
2019-03-24T19:59:27.773Z,28.73
2019-03-24T20:05:47.388Z,27.97
2019-03-24T20:08:21.064Z,25.67
2019-03-24T20:10:55.445Z,31.67
2019-03-24T20:13:29.060Z,24.67
2019-03-24T20:16:04.478Z,33.67
2019-03-24T20:18:38.748Z,28.53
2019-03-24T20:21:12.450Z,30.00
2019-03-24T20:23:46.289Z,30.00
2019-03-24T20:26:19.888Z,23.27
2019-03-24T20:28:53.520Z,25.43
2019-03-24T20:31:28.748Z,29.90
2019-03-24T20:34:02.480Z,23.23
2019-03-24T20:36:36.085Z,31.50
2019-03-24T20:39:10.059Z,28.67
2019-03-24T20:41:43.848Z,22.80
2019-03-24T20:44:17.594Z,25.30
2019-03-24T20:46:52.120Z,32.70
2019-03-24T20:49:27.257Z,33.03
2019-03-24T20:52:01.575Z,30.97
2019-03-24T20:54:38.204Z,34.90
2019-03-24T20:57:12.610Z,27.27
2019-03-24T20:59:46.424Z,26.73
2019-03-24T21:02:20.219Z,25.53
2019-03-24T21:04:53.915Z,34.97
2019-03-24T21:07:27.613Z,27.40
2019-03-24T21:10:01.288Z,23.60
2019-03-24T21:12:35.071Z,24.30
2019-03-24T21:15:11.498Z,25.10
2019-03-24T21:17:45.263Z,30.20
2019-03-24T21:20:19.093Z,23.00
2019-03-24T21:22:52.881Z,29.83
2019-03-24T21:25:26.734Z,29.87
2019-03-24T21:28:00.337Z,27.37
2019-03-24T21:30:36.287Z,33.53
2019-03-24T21:33:10.338Z,24.97
2019-03-24T21:35:43.966Z,34.50
2019-03-24T21:38:17.562Z,31.93
2019-03-24T21:40:51.313Z,29.13
2019-03-24T21:43:24.910Z,31.40
2019-03-24T21:45:58.607Z,29.27
2019-03-24T21:48:32.348Z,33.20
2019-03-24T21:51:06.188Z,34.33
2019-03-24T21:53:40.988Z,32.50
2019-03-24T21:56:15.643Z,27.80
2019-03-24T21:58:49.429Z,36.13
2019-03-24T22:05:09.664Z,26.43
2019-03-24T22:07:43.295Z,40.63
2019-03-24T22:10:17.035Z,40.80
2019-03-24T22:12:50.741Z,45.03
2019-03-24T22:15:25.876Z,34.30
2019-03-24T22:21:37.332Z,32.67
2019-03-24T22:24:11.118Z,36.50
2019-03-24T22:26:44.819Z,35.70
2019-03-24T22:29:19.176Z,34.37
2019-03-24T22:31:52.841Z,36.73
2019-03-24T22:34:26.496Z,41.10
2019-03-24T22:37:01.080Z,35.20
2019-03-24T22:39:35.674Z,33.97
2019-03-24T22:42:09.395Z,32.67
2019-03-24T22:44:43.002Z,29.43
2019-03-24T22:47:16.702Z,35.20
2019-03-24T22:49:51.952Z,41.20
2019-03-24T22:52:25.765Z,29.53
2019-03-24T22:54:59.475Z,35.23
2019-03-24T22:57:33.470Z,36.97
2019-03-24T23:00:11.882Z,36.70
2019-03-24T23:02:45.732Z,33.57
2019-03-24T23:05:19.525Z,39.03
2019-03-24T23:07:56.403Z,38.57
2019-03-24T23:10:30.091Z,29.07
2019-03-24T23:13:03.815Z,39.20
2019-03-24T23:15:37.497Z,39.40
2019-03-24T23:18:11.158Z,33.13
2019-03-24T23:20:44.869Z,35.13
2019-03-24T23:23:18.489Z,29.70
2019-03-24T23:25:52.285Z,32.23
2019-03-24T23:28:25.932Z,32.73
2019-03-24T23:30:59.725Z,29.97
2019-03-24T23:33:38.599Z,30.43
2019-03-24T23:36:13.379Z,36.97
2019-03-24T23:38:47.205Z,28.53
2019-03-24T23:41:20.882Z,40.60
2019-03-24T23:43:54.716Z,29.70
2019-03-24T23:46:28.484Z,32.23
2019-03-24T23:49:02.151Z,33.93
2019-03-24T23:51:35.998Z,22.10
2019-03-24T23:54:09.711Z,30.03
2019-03-24T23:56:43.375Z,30.00
2019-03-24T23:59:17.107Z,29.37
